ePrivacy and GPDR Cookie Consent by Cookie Consent
EmailTwitter


Observations de surface / Europe / LIRF (16242)

Régions: Québec | Canada | États-Unis | Europe | France | UK | Ailleurs
Station
Affichage
Infos & localisation pour LIRF (16242) | Aide pour décoder les METARs

Observations prises le 2021-05-18 à 18H20 UTC (LIRF)

Température: 17.0 Celsius

Point de rosée: 11.0 Celsius

Humidité relative: 68%

Vents: Sud-ouest à 13 km/h ou 7 noeuds.

Pression au niveau moyen de la mer: 101.50 kilopascals.

Observation METAR:

LIRF 181820Z 22007KT 180V240 CAVOK 17/11 Q1015 NOSIG=